createdAt,value
2022-11-20T21:17:13.693Z,6.44
2022-11-20T21:19:41.807Z,6.50
2022-11-20T21:22:08.630Z,6.55
2022-11-20T21:24:36.724Z,6.61
2022-11-20T21:27:05.805Z,6.66
2022-11-20T21:29:32.672Z,6.71
2022-11-20T21:31:59.423Z,6.78
2022-11-20T21:34:26.614Z,6.82
2022-11-20T21:36:53.694Z,6.87
2022-11-20T21:39:21.992Z,6.90
2022-11-20T21:41:48.813Z,6.94
2022-11-20T21:44:30.614Z,6.96
2022-11-20T21:46:57.931Z,7.00
2022-11-20T21:49:25.031Z,7.00
2022-11-20T21:51:53.817Z,7.03
2022-11-20T21:54:20.584Z,7.05
2022-11-20T21:56:47.616Z,7.09
2022-11-20T21:59:14.379Z,7.11
2022-11-20T22:01:41.839Z,7.14
2022-11-20T22:04:13.761Z,7.17
2022-11-20T22:06:40.505Z,7.18
2022-11-20T22:09:07.401Z,7.22
2022-11-20T22:11:34.182Z,7.27
2022-11-20T22:14:19.730Z,7.29
2022-11-20T22:16:47.217Z,7.33
2022-11-20T22:19:19.091Z,7.36
2022-11-20T22:21:46.497Z,7.42
2022-11-20T22:24:14.671Z,7.44
2022-11-20T22:26:41.975Z,7.51
2022-11-20T22:29:14.170Z,7.54
2022-11-20T22:31:41.347Z,7.55
2022-11-20T22:34:11.271Z,7.57
2022-11-20T22:36:38.725Z,7.57
2022-11-20T22:39:06.315Z,7.57
2022-11-20T22:41:33.581Z,7.60
2022-11-20T22:44:03.178Z,7.62
2022-11-20T22:46:32.516Z,7.64
2022-11-20T22:49:02.041Z,7.66
2022-11-20T22:51:31.727Z,7.71
2022-11-20T22:53:58.915Z,7.72
2022-11-20T22:56:25.823Z,7.75
2022-11-20T22:58:53.760Z,7.75
2022-11-20T23:01:25.117Z,7.73
2022-11-20T23:03:53.407Z,7.74
2022-11-20T23:06:21.325Z,7.74
2022-11-20T23:08:49.059Z,7.74
2022-11-20T23:11:21.131Z,7.71
2022-11-20T23:13:52.297Z,7.71
2022-11-20T23:16:22.477Z,7.72
2022-11-20T23:19:14.298Z,7.77
2022-11-20T23:21:42.567Z,7.82
2022-11-20T23:24:09.903Z,7.85
2022-11-20T23:26:39.024Z,7.89
2022-11-20T23:29:06.791Z,7.99
2022-11-20T23:31:35.625Z,8.06
2022-11-20T23:34:02.667Z,8.14
2022-11-20T23:36:29.489Z,8.20
2022-11-20T23:38:56.816Z,8.26
2022-11-20T23:41:23.666Z,8.30
2022-11-20T23:43:50.347Z,8.34
2022-11-20T23:46:17.248Z,8.39
2022-11-20T23:48:45.541Z,8.44
2022-11-20T23:51:13.477Z,8.46
2022-11-20T23:53:40.559Z,8.52
2022-11-20T23:56:07.503Z,8.52
2022-11-20T23:58:36.670Z,8.57
